Time;durP1;ratioP1;P1;durP2;ratioP2;P2;SDS_P1;SDS_P2;PMS_P1;PMS_P2;Temp;Humidity;BMP_temperature;BMP_pressure;BME280_temperature;BME280_humidity;BME280_pressure;Samples;Min_cycle;Max_cycle;Signal;HPM_P1;HPM_P2
2022/05/06 00:01:56;;;;;;;7.45;4.95;;;;;;;12.29;100.00;101180.59;5044146;28;20058;-61
2022/05/06 00:04:24;;;;;;;9.02;6.75;;;;;;;12.35;100.00;101180.31;5031883;28;20056;-61
2022/05/06 00:06:52;;;;;;;6.75;5.60;;;;;;;12.32;100.00;101186.34;5031861;28;20068;-61
2022/05/06 00:09:20;;;;;;;11.63;6.00;;;;;;;12.33;100.00;101178.94;5032188;28;20049;-61
2022/05/06 00:11:48;;;;;;;10.63;6.70;;;;;;;12.31;100.00;101181.97;5031405;28;20052;-62
2022/05/06 00:14:17;;;;;;;5.78;5.03;;;;;;;12.36;100.00;101179.22;5036912;28;20045;-61
2022/05/06 00:16:45;;;;;;;5.30;4.55;;;;;;;12.36;100.00;101179.22;5035170;28;20052;-61
2022/05/06 00:19:13;;;;;;;5.97;5.00;;;;;;;12.40;100.00;101175.88;5030344;28;20056;-62
2022/05/06 00:21:41;;;;;;;7.50;5.38;;;;;;;12.40;100.00;101181.38;5032031;28;20064;-62
2022/05/06 00:24:09;;;;;;;10.80;6.53;;;;;;;12.41;100.00;101180.31;5038683;28;20049;-62
2022/05/06 00:26:37;;;;;;;8.48;5.82;;;;;;;12.42;100.00;101184.69;5031895;28;20052;-62
2022/05/06 00:29:05;;;;;;;5.88;4.88;;;;;;;12.44;100.00;101185.22;5019656;28;20049;-62
2022/05/06 00:31:34;;;;;;;6.25;4.88;;;;;;;12.40;100.00;101181.38;5038760;28;20050;-61
2022/05/06 00:34:08;;;;;;;7.50;5.13;;;;;;;12.40;100.00;101179.47;5036853;28;20092;-62
2022/05/06 00:36:37;;;;;;;7.75;5.50;;;;;;;12.40;100.00;101186.88;5038869;28;20054;-62
2022/05/06 00:39:06;;;;;;;6.70;5.00;;;;;;;12.34;100.00;101173.19;5030687;28;20057;-62
2022/05/06 00:41:35;;;;;;;6.00;4.65;;;;;;;12.34;100.00;101172.34;5031716;28;20048;-62
2022/05/06 00:44:09;;;;;;;8.18;5.15;;;;;;;12.31;100.00;101173.72;5030761;28;20049;-63
2022/05/06 00:46:38;;;;;;;7.65;5.53;;;;;;;12.26;100.00;101168.25;5020011;28;20124;-63
2022/05/06 00:49:09;;;;;;;10.60;5.65;;;;;;;12.33;100.00;101155.03;5038085;28;20060;-62
2022/05/06 00:51:38;;;;;;;7.78;5.65;;;;;;;12.35;100.00;101155.59;5037279;28;20053;-62
2022/05/06 00:54:06;;;;;;;7.03;5.70;;;;;;;12.49;100.00;101153.09;5045097;28;20052;-62
2022/05/06 00:56:34;;;;;;;9.38;5.90;;;;;;;12.54;100.00;101149.53;5031914;28;20058;-62
2022/05/06 00:59:02;;;;;;;7.50;5.43;;;;;;;12.59;100.00;101146.75;5031175;28;20057;-62
2022/05/06 01:01:30;;;;;;;7.70;5.43;;;;;;;12.44;100.00;101158.59;5027379;28;20484;-62
2022/05/06 01:03:58;;;;;;;8.48;6.03;;;;;;;12.50;100.00;101148.41;5023499;28;20045;-62
2022/05/06 01:06:27;;;;;;;9.95;5.50;;;;;;;12.59;100.00;101140.44;5019032;28;20045;-62
2022/05/06 01:08:56;;;;;;;8.10;5.40;;;;;;;12.56;100.00;101152.00;5025082;28;20071;-62
2022/05/06 01:11:26;;;;;;;6.65;5.22;;;;;;;12.49;100.00;101144.03;5013720;28;20061;-62
2022/05/06 01:13:56;;;;;;;6.45;4.78;;;;;;;12.56;100.00;101147.31;5031361;28;20057;-62
2022/05/06 01:16:36;;;;;;;10.80;5.68;;;;;;;12.58;100.00;101149.78;5030793;28;20064;-62
2022/05/06 01:19:09;;;;;;;5.57;4.75;;;;;;;12.57;100.00;101151.69;5013452;28;20058;-62
2022/05/06 01:21:42;;;;;;;7.65;5.07;;;;;;;12.62;100.00;101157.16;5030689;28;20057;-62
2022/05/06 01:24:10;;;;;;;6.60;4.30;;;;;;;12.61;100.00;101155.53;5037999;28;20049;-62
2022/05/06 01:26:54;;;;;;;7.25;5.38;;;;;;;12.59;100.00;101145.94;5031263;28;20809;-62
2022/05/06 01:29:22;;;;;;;7.63;4.80;;;;;;;12.53;100.00;101147.88;5030713;28;20400;-62
2022/05/06 01:31:51;;;;;;;7.68;5.03;;;;;;;12.58;100.00;101147.03;5030902;28;20059;-62
2022/05/06 01:34:24;;;;;;;6.60;4.10;;;;;;;12.54;100.00;101138.53;5031116;28;20045;-62
2022/05/06 01:36:57;;;;;;;7.75;4.93;;;;;;;12.48;100.00;101153.38;5012945;28;20045;-62
2022/05/06 01:39:35;;;;;;;4.63;3.83;;;;;;;12.58;100.00;101145.13;5030898;28;20049;-62
2022/05/06 01:42:12;;;;;;;5.97;4.15;;;;;;;12.51;100.00;101147.31;5013825;28;20045;-62
2022/05/06 01:44:57;;;;;;;7.15;4.93;;;;;;;12.39;100.00;101142.16;5030983;28;20073;-62
2022/05/06 01:47:27;;;;;;;6.20;4.00;;;;;;;12.47;100.00;101149.00;5044080;28;20053;-63
2022/05/06 01:50:00;;;;;;;4.47;3.58;;;;;;;12.51;100.00;101144.56;5028887;28;20041;-62
2022/05/06 01:52:35;;;;;;;7.80;4.75;;;;;;;12.50;100.00;101131.94;5016792;28;20511;-62
2022/05/06 01:55:04;;;;;;;5.60;3.83;;;;;;;12.52;100.00;101139.91;5048378;28;20048;-62
2022/05/06 01:57:41;;;;;;;8.52;4.28;;;;;;;12.47;100.00;101133.34;5016704;28;20041;-62
2022/05/06 02:00:12;;;;;;;12.32;4.65;;;;;;;12.46;100.00;101131.69;5000031;28;20045;-62
2022/05/06 02:02:42;;;;;;;6.03;4.88;;;;;;;12.48;100.00;101134.97;5046265;28;20408;-62
2022/05/06 02:05:19;;;;;;;4.57;3.70;;;;;;;12.52;100.00;101132.50;5051237;28;20049;-62
2022/05/06 02:07:52;;;;;;;7.60;4.05;;;;;;;12.50;100.00;101137.44;5052190;28;20053;-62
2022/05/06 02:10:23;;;;;;;5.63;4.30;;;;;;;12.56;100.00;101147.31;5052001;28;20045;-62
2022/05/06 02:12:59;;;;;;;5.10;4.22;;;;;;;12.53;100.00;101130.56;5052227;28;20511;-62
2022/05/06 02:15:45;;;;;;;5.38;4.22;;;;;;;12.54;100.00;101121.22;5042865;28;20049;-62
2022/05/06 02:18:34;;;;;;;7.25;5.20;;;;;;;12.55;100.00;101125.63;5051346;28;20056;-62
2022/05/06 02:21:24;;;;;;;5.35;4.00;;;;;;;12.54;100.00;101127.56;5052099;28;20518;-62
2022/05/06 02:24:17;;;;;;;5.63;3.88;;;;;;;12.56;100.00;101119.84;5044973;28;20496;-62
2022/05/06 02:27:14;;;;;;;8.23;4.30;;;;;;;12.56;100.00;101113.56;5051515;28;20053;-62
2022/05/06 02:35:26;;;;;;;4.90;3.88;;;;;;;12.68;100.00;101110.47;5051676;28;20049;-62
2022/05/06 02:37:55;;;;;;;5.85;4.03;;;;;;;12.58;100.00;101101.19;5051785;28;20045;-62
2022/05/06 02:40:27;;;;;;;6.00;4.60;;;;;;;12.67;100.00;101103.34;5051001;28;20053;-62
2022/05/06 02:42:57;;;;;;;5.70;3.95;;;;;;;12.65;100.00;101100.06;5052327;28;20053;-62
2022/05/06 02:45:27;;;;;;;5.72;3.70;;;;;;;12.56;100.00;101097.09;5050887;28;20523;-62
2022/05/06 02:47:59;;;;;;;5.47;3.80;;;;;;;12.66;100.00;101093.47;5034274;28;20046;-62
2022/05/06 02:50:27;;;;;;;5.22;4.05;;;;;;;12.63;100.00;101092.09;5019513;28;20048;-62
2022/05/06 02:52:55;;;;;;;5.13;3.80;;;;;;;12.63;100.00;101092.09;5015553;28;20056;-62
2022/05/06 02:55:25;;;;;;;4.43;3.55;;;;;;;12.65;100.00;101100.88;5015419;28;20049;-62
2022/05/06 02:57:56;;;;;;;4.88;4.38;;;;;;;12.60;100.00;101093.50;5015673;28;20054;-62
2022/05/06 03:00:24;;;;;;;6.72;4.18;;;;;;;12.63;100.00;101092.91;5032311;28;20052;-61
2022/05/06 03:02:56;;;;;;;4.35;3.70;;;;;;;12.70;100.00;101097.31;4999491;28;20053;-61
2022/05/06 03:05:27;;;;;;;5.20;3.97;;;;;;;12.79;100.00;101083.78;5023609;28;20067;-62
2022/05/06 03:07:58;;;;;;;5.10;3.92;;;;;;;12.78;100.00;101077.47;5021240;28;20515;-62
2022/05/06 03:10:29;;;;;;;5.93;4.07;;;;;;;12.77;100.00;101093.13;5015472;28;20053;-62
2022/05/06 03:12:58;;;;;;;4.78;4.03;;;;;;;12.73;100.00;101085.75;5015558;28;20053;-62
2022/05/06 03:15:28;;;;;;;3.92;3.53;;;;;;;12.79;100.00;101086.53;5015318;28;20058;-62
2022/05/06 03:18:10;;;;;;;6.88;4.22;;;;;;;12.82;100.00;101088.72;5015751;28;20046;-62
2022/05/06 03:20:39;;;;;;;5.43;4.55;;;;;;;12.79;100.00;101084.63;5015721;28;20416;-62
2022/05/06 03:23:08;;;;;;;6.38;4.82;;;;;;;12.73;100.00;101077.50;5038829;28;20049;-61
2022/05/06 03:25:36;;;;;;;5.57;4.38;;;;;;;12.74;100.00;101081.88;5038388;28;20064;-61
2022/05/06 03:28:09;;;;;;;5.57;4.53;;;;;;;12.71;100.00;101093.44;5034772;28;20052;-62
2022/05/06 03:30:44;;;;;;;6.13;4.30;;;;;;;12.67;100.00;101093.19;5034230;28;20050;-62
2022/05/06 03:33:33;;;;;;;5.72;4.25;;;;;;;12.71;100.00;101094.25;5031834;28;20049;-62
2022/05/06 03:36:09;;;;;;;5.80;3.88;;;;;;;12.69;100.00;101090.16;5022995;28;20041;-61
2022/05/06 03:38:47;;;;;;;6.22;4.25;;;;;;;12.57;100.00;101088.53;5020317;28;20045;-62
2022/05/06 03:41:15;;;;;;;6.72;4.28;;;;;;;12.59;100.00;101085.53;5026304;28;20046;-62
2022/05/06 03:43:45;;;;;;;7.18;5.35;;;;;;;12.55;100.00;101095.41;5030936;28;20053;-62
2022/05/06 03:46:18;;;;;;;7.70;4.53;;;;;;;12.54;100.00;101086.38;5035109;28;20055;-62
2022/05/06 03:48:46;;;;;;;7.72;5.22;;;;;;;12.54;100.00;101088.28;5041623;28;20050;-61
2022/05/06 03:51:21;;;;;;;7.88;5.38;;;;;;;12.50;100.00;101082.53;5014437;28;20048;-62
2022/05/06 03:53:58;;;;;;;7.78;5.40;;;;;;;12.50;100.00;101091.59;5014561;28;20060;-62
2022/05/06 03:56:28;;;;;;;5.40;4.35;;;;;;;12.47;100.00;101083.13;5031233;28;20040;-62
2022/05/06 03:58:59;;;;;;;5.75;5.00;;;;;;;12.48;100.00;101091.06;5045511;28;20056;-62
2022/05/06 04:01:28;;;;;;;6.13;5.00;;;;;;;12.47;100.00;101088.59;5046166;28;20056;-62
2022/05/06 04:03:57;;;;;;;8.25;5.93;;;;;;;12.53;100.00;101097.63;5044537;28;20057;-61
2022/05/06 04:06:30;;;;;;;6.07;4.53;;;;;;;12.51;100.00;101095.16;5042237;28;20056;-62
2022/05/06 04:08:59;;;;;;;8.45;5.63;;;;;;;12.48;100.00;101095.72;5043950;28;20060;-61
2022/05/06 04:11:30;;;;;;;7.43;5.45;;;;;;;12.57;100.00;101095.97;5046419;28;20041;-61
2022/05/06 04:14:03;;;;;;;6.40;5.20;;;;;;;12.59;100.00;101094.59;5042673;28;20037;-64
2022/05/06 04:16:34;;;;;;;5.63;4.85;;;;;;;12.55;100.00;101093.50;5045370;28;20504;-62
2022/05/06 04:19:05;;;;;;;8.70;5.05;;;;;;;12.54;100.00;101100.09;5044270;28;20037;-61
2022/05/06 04:24:25;;;;;;;7.07;5.72;;;;;;;12.56;100.00;101097.09;5044890;28;20049;-62
2022/05/06 04:26:53;;;;;;;8.40;5.57;;;;;;;12.56;100.00;101105.31;5040044;28;20048;-62
2022/05/06 04:29:22;;;;;;;8.38;5.45;;;;;;;12.57;100.00;101115.19;5038177;28;20377;-62
2022/05/06 04:31:52;;;;;;;6.63;5.28;;;;;;;12.58;100.00;101116.84;5051255;28;20886;-62
2022/05/06 04:34:20;;;;;;;9.95;5.32;;;;;;;12.52;100.00;101113.31;5015747;28;20502;-62
2022/05/06 04:36:49;;;;;;;9.13;5.57;;;;;;;12.52;100.00;101117.97;5038166;28;20203;-62
2022/05/06 04:39:17;;;;;;;7.18;5.40;;;;;;;12.55;100.00;101120.97;5051381;28;20053;-62
2022/05/06 04:41:50;;;;;;;8.00;5.25;;;;;;;12.60;100.00;101123.69;5030707;28;20400;-61
2022/05/06 04:44:25;;;;;;;11.90;6.25;;;;;;;12.61;100.00;101121.78;5034878;28;20048;-61
2022/05/06 04:46:55;;;;;;;7.65;5.63;;;;;;;12.53;100.00;101120.44;5033017;28;20053;-62
2022/05/06 04:49:24;;;;;;;5.47;4.55;;;;;;;12.53;100.00;101120.44;5017767;28;20053;-61
2022/05/06 04:51:52;;;;;;;7.50;5.78;;;;;;;12.55;100.00;101120.97;5017381;28;20060;-62
2022/05/06 04:54:20;;;;;;;8.07;5.88;;;;;;;12.54;100.00;101135.78;5045294;28;20053;-61
2022/05/06 04:56:49;;;;;;;8.73;5.85;;;;;;;12.56;100.00;101136.31;5029480;28;20388;-62
2022/05/06 04:59:25;;;;;;;6.53;5.10;;;;;;;12.57;100.00;101134.41;5030122;28;20045;-62
2022/05/06 05:01:54;;;;;;;9.13;6.53;;;;;;;12.53;100.00;101136.91;5027441;28;20045;-62
2022/05/06 05:04:27;;;;;;;9.05;6.30;;;;;;;12.56;100.00;101127.28;5045650;28;20049;-62
2022/05/06 05:07:02;;;;;;;9.90;5.93;;;;;;;12.64;100.00;101126.69;5033866;28;20514;-62
2022/05/06 05:09:31;;;;;;;7.85;5.70;;;;;;;12.66;100.00;101123.66;5039811;28;20056;-61
2022/05/06 05:11:59;;;;;;;7.20;5.60;;;;;;;12.65;100.00;101122.03;5025521;28;20057;-62
2022/05/06 05:14:35;;;;;;;6.90;4.97;;;;;;;12.71;100.00;101126.41;5031729;28;20049;-62
2022/05/06 05:17:06;;;;;;;6.95;5.43;;;;;;;13.08;100.00;101133.34;5030857;28;20488;-69
2022/05/06 05:19:34;;;;;;;6.15;5.10;;;;;;;13.37;100.00;101138.13;5031752;28;20057;-69
2022/05/06 05:22:05;;;;;;;6.72;4.90;;;;;;;13.63;100.00;101132.47;5051091;28;20045;-69
2022/05/06 05:24:35;;;;;;;9.23;5.60;;;;;;;13.67;100.00;101128.03;5037337;28;20048;-67
2022/05/06 05:27:04;;;;;;;6.43;5.10;;;;;;;13.76;100.00;101138.41;5038388;28;20040;-67
2022/05/06 05:29:34;;;;;;;7.88;5.05;;;;;;;13.76;100.00;101141.16;5052549;28;20063;-68
2022/05/06 05:32:03;;;;;;;7.88;5.10;;;;;;;13.80;100.00;101143.06;5038821;28;20037;-70
2022/05/06 05:34:31;;;;;;;5.70;4.93;;;;;;;13.70;100.00;101138.47;5038116;28;20504;-70
2022/05/06 05:36:59;;;;;;;10.27;4.65;;;;;;;13.80;100.00;101131.25;5035660;28;20045;-68
2022/05/06 05:39:28;;;;;;;6.97;5.25;;;;;;;13.92;100.00;101130.84;5017030;28;20042;-68
2022/05/06 05:41:59;;;;;;;8.10;4.80;;;;;;;14.01;100.00;101139.28;5017720;28;20041;-68
2022/05/06 05:50:02;;;;;;;4.32;3.92;;;;;;;13.88;100.00;101130.59;5035242;28;20041;-68
2022/05/06 05:52:31;;;;;;;5.55;4.43;;;;;;;14.00;100.00;101143.16;5016662;28;20049;-68
2022/05/06 05:54:59;;;;;;;5.70;4.43;;;;;;;14.08;100.00;101137.84;5035746;28;20060;-68
2022/05/06 05:57:30;;;;;;;7.90;4.75;;;;;;;14.06;100.00;101142.84;5024637;28;20054;-68
2022/05/06 05:59:58;;;;;;;5.25;4.65;;;;;;;14.23;100.00;101142.38;5015936;28;20048;-70
2022/05/06 06:02:27;;;;;;;6.30;4.65;;;;;;;14.16;100.00;101147.41;5016491;28;20060;-70
2022/05/06 06:04:56;;;;;;;7.55;4.70;;;;;;;14.08;100.00;101143.34;5030465;28;20042;-69
2022/05/06 06:07:25;;;;;;;4.88;4.10;;;;;;;14.10;100.00;101145.81;5017095;28;20038;-69
2022/05/06 06:09:57;;;;;;;6.40;4.53;;;;;;;14.23;100.00;101141.59;5016900;28;20050;-70
2022/05/06 06:12:26;;;;;;;5.78;4.82;;;;;;;14.08;100.00;101145.31;5033672;28;20050;-70
2022/05/06 06:14:56;;;;;;;5.82;4.10;;;;;;;14.16;100.00;101133.66;5017066;28;20493;-70
2022/05/06 06:17:24;;;;;;;6.35;4.63;;;;;;;14.05;100.00;101140.38;5016849;28;20045;-69
2022/05/06 06:19:53;;;;;;;5.72;4.18;;;;;;;14.18;100.00;101147.94;5016959;28;20038;-70
2022/05/06 06:22:23;;;;;;;6.13;4.32;;;;;;;14.17;100.00;101154.56;5022979;28;20495;-69
2022/05/06 06:24:58;;;;;;;5.85;4.47;;;;;;;14.21;100.00;101163.06;5020508;28;20797;-69
2022/05/06 06:27:28;;;;;;;5.00;4.10;;;;;;;14.09;100.00;101157.94;5038947;28;20052;-69
2022/05/06 06:30:03;;;;;;;6.78;3.70;;;;;;;14.03;100.00;101156.34;5035586;28;20048;-70
2022/05/06 06:32:33;;;;;;;6.18;4.10;;;;;;;14.02;100.00;101162.97;5016553;28;20060;-69
2022/05/06 06:35:03;;;;;;;5.18;4.03;;;;;;;14.05;100.00;101156.88;5015287;28;20064;-69
2022/05/06 06:37:38;;;;;;;4.88;4.00;;;;;;;13.86;100.00;101152.09;5039109;28;20048;-69
2022/05/06 06:40:07;;;;;;;6.45;4.43;;;;;;;13.92;100.00;101156.44;5022724;28;20046;-70
2022/05/06 06:42:36;;;;;;;5.25;4.60;;;;;;;13.93;100.00;101152.56;5033438;28;20054;-69
2022/05/06 06:45:21;;;;;;;5.78;4.72;;;;;;;14.04;100.00;101160.75;5015691;28;20053;-69
2022/05/06 06:48:08;;;;;;;5.20;4.43;;;;;;;13.87;100.00;101163.94;5046858;28;20061;-70
2022/05/06 06:50:53;;;;;;;7.35;4.80;;;;;;;14.01;100.00;101159.38;5015850;28;20049;-69
2022/05/06 06:53:25;;;;;;;5.72;4.47;;;;;;;14.00;100.00;101159.69;5039582;28;20052;-70
2022/05/06 06:55:53;;;;;;;4.68;4.18;;;;;;;13.85;100.00;101164.22;5039953;28;20065;-70
2022/05/06 06:58:21;;;;;;;7.93;4.78;;;;;;;14.05;100.00;101167.88;5038289;28;20076;-70
2022/05/06 07:00:49;;;;;;;6.75;4.80;;;;;;;14.15;100.00;101166.97;5041740;28;20400;-70
2022/05/06 07:03:17;;;;;;;6.20;4.90;;;;;;;13.88;100.00;101162.81;5036820;28;20041;-70
2022/05/06 07:14:04;;;;;;;6.50;5.10;;;;;;;13.97;100.00;101170.16;5032833;28;20053;-70
2022/05/06 07:16:32;;;;;;;6.07;4.50;;;;;;;14.01;100.00;101175.91;5033304;28;20400;-70
2022/05/06 07:19:00;;;;;;;6.55;5.28;;;;;;;13.97;100.00;101175.66;5015707;28;20042;-70
2022/05/06 07:21:28;;;;;;;5.13;4.60;;;;;;;14.01;100.00;101181.41;5033305;28;20045;-70
2022/05/06 07:23:56;;;;;;;5.75;4.85;;;;;;;14.04;100.00;101180.00;5032599;28;20659;-69
2022/05/06 07:26:25;;;;;;;5.20;4.70;;;;;;;13.98;100.00;101174.53;5033277;28;20480;-69
2022/05/06 07:28:53;;;;;;;6.53;4.80;;;;;;;14.08;100.00;101175.56;5032679;28;20044;-70
2022/05/06 07:31:21;;;;;;;7.25;5.35;;;;;;;14.15;100.00;101178.81;5033080;28;20056;-70
2022/05/06 07:33:49;;;;;;;7.88;5.35;;;;;;;14.22;100.00;101179.28;5032439;28;20037;-70
2022/05/06 07:36:17;;;;;;;5.28;4.60;;;;;;;14.04;100.00;101180.00;5032024;28;20049;-70
2022/05/06 07:38:45;;;;;;;7.45;5.50;;;;;;;14.28;100.00;101176.47;5031623;28;20531;-70
2022/05/06 07:41:14;;;;;;;9.90;5.63;;;;;;;14.26;100.00;101185.03;5032257;28;20046;-70
2022/05/06 07:43:42;;;;;;;6.38;5.05;;;;;;;14.20;100.00;101180.69;5032797;28;20042;-69
2022/05/06 07:46:10;;;;;;;7.05;5.75;;;;;;;14.16;100.00;101185.13;5034397;28;20052;-70
2022/05/06 07:48:39;;;;;;;7.50;5.03;;;;;;;14.08;100.00;101195.66;5043281;28;20053;-69
2022/05/06 07:51:07;;;;;;;7.18;5.25;;;;;;;14.14;100.00;101196.44;5031743;28;20041;-70
2022/05/06 07:53:35;;;;;;;7.22;5.20;;;;;;;14.18;100.00;101194.72;5031796;28;20052;-70
2022/05/06 07:56:04;;;;;;;7.47;5.50;;;;;;;14.13;100.00;101186.50;5031881;28;20049;-70
2022/05/06 07:58:33;;;;;;;7.60;5.80;;;;;;;14.02;100.00;101196.00;5038398;28;20056;-70
2022/05/06 08:01:00;;;;;;;8.23;5.28;;;;;;;14.07;100.00;101193.19;5038685;28;20397;-70
2022/05/06 08:06:15;;;;;;;7.35;5.38;;;;;;;14.18;100.00;101199.44;5032464;28;20515;-70
2022/05/06 08:08:43;;;;;;;7.20;5.25;;;;;;;14.08;100.00;101192.09;5031664;28;20068;-70
2022/05/06 08:11:11;;;;;;;6.85;5.35;;;;;;;13.93;100.00;101196.59;5031395;28;20061;-69
2022/05/06 08:13:39;;;;;;;5.40;4.57;;;;;;;14.22;100.00;101197.72;5031992;28;20405;-69
2022/05/06 08:16:07;;;;;;;8.63;6.18;;;;;;;14.31;100.00;101207.00;5031278;28;20053;-70
2022/05/06 08:18:36;;;;;;;8.70;5.63;;;;;;;14.25;100.00;101188.91;5030888;28;20045;-70
2022/05/06 08:21:04;;;;;;;7.00;5.22;;;;;;;14.35;100.00;101193.47;5031779;28;20072;-69
2022/05/06 08:23:32;;;;;;;9.48;5.75;;;;;;;14.26;100.00;101190.53;5031428;28;20491;-69
2022/05/06 08:26:00;;;;;;;5.95;5.13;;;;;;;14.35;100.00;101193.47;5030918;28;20057;-70
2022/05/06 08:28:29;;;;;;;7.00;5.40;;;;;;;14.45;100.00;101193.38;5031131;28;20057;-70
2022/05/06 08:30:57;;;;;;;6.72;5.07;;;;;;;14.57;100.00;101192.16;5031758;28;20060;-70
2022/05/06 08:33:26;;;;;;;7.72;5.40;;;;;;;14.51;100.00;101202.41;5026916;28;20052;-70
2022/05/06 08:35:54;;;;;;;7.28;5.20;;;;;;;14.47;100.00;101195.84;5031606;28;20053;-69
2022/05/06 08:38:23;;;;;;;7.13;5.75;;;;;;;14.42;99.70;101198.66;5031508;28;20404;-70
2022/05/06 08:40:51;;;;;;;5.45;4.53;;;;;;;14.11;100.00;101200.59;5031380;28;20050;-70
2022/05/06 08:43:19;;;;;;;6.63;5.38;;;;;;;14.37;100.00;101205.84;5031593;28;20045;-71
2022/05/06 08:51:31;;;;;;;6.43;4.57;;;;;;;14.52;99.60;101210.38;5031285;28;20496;-69
2022/05/06 08:53:59;;;;;;;5.22;4.32;;;;;;;14.62;98.33;101209.44;5031389;28;20045;-69
2022/05/06 08:56:28;;;;;;;6.07;4.40;;;;;;;14.58;99.24;101204.81;5030824;28;20064;-69
2022/05/06 08:58:56;;;;;;;6.80;5.00;;;;;;;14.54;97.82;101212.00;5032375;28;20046;-69
2022/05/06 09:01:25;;;;;;;5.80;4.80;;;;;;;14.41;98.74;101216.28;5035051;28;20052;-69
2022/05/06 09:03:55;;;;;;;5.57;4.30;;;;;;;14.38;100.00;101212.19;5044586;28;20051;-69
2022/05/06 09:06:29;;;;;;;5.75;4.30;;;;;;;14.63;99.22;101213.03;5039547;28;20520;-69
2022/05/06 09:08:58;;;;;;;5.88;4.97;;;;;;;14.71;98.51;101220.66;5035867;28;20049;-69
2022/05/06 09:17:28;;;;;;;6.57;4.55;;;;;;;14.58;98.85;101222.19;5034726;28;20407;-70
2022/05/06 09:19:56;;;;;;;6.25;4.70;;;;;;;14.73;100.00;101228.63;5048026;28;20053;-70
2022/05/06 09:22:27;;;;;;;6.28;4.82;;;;;;;14.74;98.85;101236.63;5035554;28;20052;-70
2022/05/06 09:24:55;;;;;;;5.82;4.75;;;;;;;14.82;98.57;101239.84;5035431;28;20053;-69
2022/05/06 09:27:24;;;;;;;7.03;5.13;;;;;;;14.76;99.98;101237.16;5017787;28;20050;-69
2022/05/06 09:29:54;;;;;;;10.40;5.10;;;;;;;14.79;99.87;101233.00;5034792;28;20064;-69
2022/05/06 09:32:26;;;;;;;5.93;4.85;;;;;;;14.70;99.80;101227.28;5034571;28;20061;-69
2022/05/06 09:35:11;;;;;;;6.20;4.18;;;;;;;14.70;100.00;101238.28;5034944;28;20041;-69
2022/05/06 09:37:41;;;;;;;5.55;4.28;;;;;;;14.71;97.10;101233.63;5017922;28;20060;-69
2022/05/06 09:40:14;;;;;;;10.68;4.80;;;;;;;14.73;98.39;101243.22;5034564;28;20061;-69
2022/05/06 09:43:01;;;;;;;8.50;5.15;;;;;;;14.74;100.00;101244.91;5035210;28;20053;-70
2022/05/06 09:45:30;;;;;;;7.18;5.25;;;;;;;14.73;100.00;101243.22;5034171;28;20413;-69
2022/05/06 09:48:11;;;;;;;5.97;4.88;;;;;;;14.83;99.34;101244.25;5049192;28;20396;-70
2022/05/06 09:50:42;;;;;;;5.38;4.82;;;;;;;14.97;99.28;101247.97;5034943;28;20420;-69
2022/05/06 09:53:18;;;;;;;5.85;4.97;;;;;;;14.72;98.87;101260.03;5034556;28;20378;-70
2022/05/06 09:55:49;;;;;;;5.22;3.67;;;;;;;14.74;99.67;101258.66;5034383;28;20065;-70
2022/05/06 09:58:17;;;;;;;10.30;5.45;;;;;;;14.77;100.00;101252.56;5034394;28;20060;-70
2022/05/06 10:00:45;;;;;;;4.85;4.32;;;;;;;14.91;98.78;101254.66;5027061;28;20060;-69
2022/05/06 10:03:13;;;;;;;6.57;4.88;;;;;;;14.91;100.00;101260.16;5039913;28;20045;-69
2022/05/06 10:05:42;;;;;;;6.78;4.72;;;;;;;14.98;99.24;101257.88;5044395;28;20399;-70
2022/05/06 10:08:19;;;;;;;7.00;5.25;;;;;;;14.85;99.61;101266.81;5033914;28;20060;-69
2022/05/06 10:10:58;;;;;;;6.68;5.28;;;;;;;14.88;99.56;101256.03;5033850;28;20610;-70
2022/05/06 10:13:29;;;;;;;6.40;5.25;;;;;;;14.92;99.44;101259.03;5034596;28;20056;-69
2022/05/06 10:15:58;;;;;;;7.63;5.25;;;;;;;14.91;100.00;101262.91;5034483;28;20477;-69
2022/05/06 10:18:33;;;;;;;5.47;4.35;;;;;;;14.80;100.00;101259.44;5036337;28;20045;-69
2022/05/06 10:21:03;;;;;;;7.00;5.00;;;;;;;14.84;100.00;101254.16;5044289;28;20507;-69
2022/05/06 10:23:46;;;;;;;6.75;4.90;;;;;;;15.01;99.40;101254.50;5042402;28;20045;-69
2022/05/06 10:26:33;;;;;;;5.30;4.70;;;;;;;14.72;100.00;101251.78;5048217;28;20041;-69
2022/05/06 10:34:55;;;;;;;8.00;5.45;;;;;;;14.86;100.00;101258.25;5034196;28;20049;-69
2022/05/06 10:37:35;;;;;;;6.45;5.03;;;;;;;14.99;100.00;101256.75;5033686;28;20061;-69
2022/05/06 10:40:25;;;;;;;7.22;5.55;;;;;;;14.90;100.00;101259.31;5033655;28;20057;-69
2022/05/06 10:42:53;;;;;;;7.13;6.30;;;;;;;14.91;100.00;101249.13;5034223;28;20060;-70
2022/05/06 10:45:33;;;;;;;7.03;5.40;;;;;;;14.82;100.00;101254.47;5047495;28;20484;-70
2022/05/06 10:48:16;;;;;;;5.78;4.78;;;;;;;14.75;98.13;101246.53;5047644;28;20042;-69
2022/05/06 10:50:44;;;;;;;6.00;4.35;;;;;;;14.95;97.70;101252.91;5033083;28;20076;-69
2022/05/06 10:53:33;;;;;;;5.15;3.85;;;;;;;14.76;99.62;101242.66;5034158;28;20042;-69
2022/05/06 10:56:01;;;;;;;6.57;4.20;;;;;;;14.88;98.25;101255.22;5044971;28;20048;-69
2022/05/06 10:58:29;;;;;;;7.43;4.57;;;;;;;14.96;97.15;101253.75;5052080;28;20037;-69
2022/05/06 11:01:00;;;;;;;5.50;4.30;;;;;;;14.98;98.47;101246.84;5049850;28;20060;-69
2022/05/06 11:03:28;;;;;;;6.10;3.95;;;;;;;15.09;98.06;101241.19;5052373;28;20056;-69
2022/05/06 11:05:57;;;;;;;4.85;4.03;;;;;;;15.10;97.57;101235.38;5052168;28;20059;-69
2022/05/06 11:08:33;;;;;;;5.80;3.55;;;;;;;15.23;96.62;101249.56;5052884;28;20037;-69
2022/05/06 11:11:01;;;;;;;5.40;3.55;;;;;;;15.14;97.11;101238.38;5049342;28;20514;-69
2022/05/06 11:13:34;;;;;;;4.72;3.25;;;;;;;15.35;95.65;101232.59;5051717;28;20412;-69
2022/05/06 11:16:07;;;;;;;3.55;3.22;;;;;;;15.37;94.93;101233.13;5052768;28;20040;-70
2022/05/06 11:18:42;;;;;;;4.63;3.45;;;;;;;15.39;94.22;101233.66;5043557;28;20053;-69
2022/05/06 11:21:23;;;;;;;5.18;3.53;;;;;;;15.54;95.90;101227.91;5051071;28;20037;-69
2022/05/06 11:23:51;;;;;;;4.40;3.70;;;;;;;15.38;94.12;101232.81;5051205;28;20048;-69
2022/05/06 11:26:27;;;;;;;3.92;3.35;;;;;;;15.54;92.43;101227.91;5052459;28;20041;-69
2022/05/06 11:29:05;;;;;;;10.75;6.03;;;;;;;15.52;91.85;101234.84;5052343;28;20041;-69
2022/05/06 11:31:33;;;;;;;11.07;5.95;;;;;;;15.44;92.77;101237.16;5051339;28;20060;-69
2022/05/06 11:34:04;;;;;;;10.52;6.40;;;;;;;15.44;94.77;101228.03;5052110;28;20041;-69
2022/05/06 11:36:33;;;;;;;9.10;5.10;;;;;;;15.44;93.73;101233.56;5051440;28;20052;-69
2022/05/06 11:39:12;;;;;;;5.35;4.35;;;;;;;15.23;94.39;101233.84;5051608;28;20516;-69
2022/05/06 11:41:40;;;;;;;10.50;5.82;;;;;;;15.23;95.44;101249.56;5052215;28;20052;-69
2022/05/06 11:44:08;;;;;;;8.23;5.05;;;;;;;14.88;96.93;101245.03;5034443;28;20041;-69
2022/05/06 11:49:26;;;;;;;5.05;4.30;;;;;;;14.81;100.00;101243.72;5049230;28;20045;-69
2022/05/06 11:51:56;;;;;;;5.47;4.32;;;;;;;14.93;98.68;101235.88;5049154;28;20029;-69
2022/05/06 11:54:26;;;;;;;5.57;3.78;;;;;;;15.04;98.00;101240.16;5051712;28;20045;-69
2022/05/06 11:56:54;;;;;;;6.38;4.53;;;;;;;15.08;97.76;101245.06;5050981;28;20124;-69
2022/05/06 11:59:22;;;;;;;5.18;4.32;;;;;;;14.94;99.70;101244.94;5051560;28;20056;-70
2022/05/06 12:01:51;;;;;;;5.93;4.80;;;;;;;14.98;99.20;101246.00;5048644;28;20514;-70
2022/05/06 12:04:29;;;;;;;7.28;4.57;;;;;;;14.87;100.00;101237.84;5052309;28;20396;-70
2022/05/06 12:06:58;;;;;;;6.70;4.65;;;;;;;15.03;99.83;101237.69;5049098;28;20045;-70
2022/05/06 12:09:26;;;;;;;5.63;4.55;;;;;;;15.07;100.00;101235.16;5050137;28;20056;-70
2022/05/06 12:12:08;;;;;;;5.70;4.57;;;;;;;14.92;100.00;101239.75;5034758;28;20045;-70
2022/05/06 12:14:39;;;;;;;5.60;4.35;;;;;;;14.85;100.00;101234.56;5048602;28;20068;-71
2022/05/06 12:17:14;;;;;;;7.20;5.05;;;;;;;14.75;100.00;101238.28;5051326;28;20056;-70
2022/05/06 12:19:45;;;;;;;4.97;4.03;;;;;;;14.83;100.00;101231.31;5051063;28;20045;-70
2022/05/06 12:22:22;;;;;;;5.78;4.38;;;;;;;14.89;100.00;101241.16;5050083;28;20048;-70
2022/05/06 12:24:55;;;;;;;6.40;4.22;;;;;;;14.85;100.00;101228.22;5049723;28;20048;-70